sensor_id;sensor_type;location;lat;lon;timestamp;P1;durP1;ratioP1;P2;durP2;ratioP2
44189;SDS011;29856;52.144;5.430;2023-04-15T00:01:50;10.70;;;5.30;;
44189;SDS011;29856;52.144;5.430;2023-04-15T00:04:16;10.55;;;4.60;;
44189;SDS011;29856;52.144;5.430;2023-04-15T00:06:51;10.50;;;4.85;;
44189;SDS011;29856;52.144;5.430;2023-04-15T00:09:18;10.57;;;5.05;;
44189;SDS011;29856;52.144;5.430;2023-04-15T00:11:44;12.82;;;4.85;;
44189;SDS011;29856;52.144;5.430;2023-04-15T00:14:10;10.82;;;4.70;;
44189;SDS011;29856;52.144;5.430;2023-04-15T00:16:36;10.55;;;4.72;;
44189;SDS011;29856;52.144;5.430;2023-04-15T00:19:02;9.27;;;4.95;;
44189;SDS011;29856;52.144;5.430;2023-04-15T00:21:27;12.15;;;5.28;;
44189;SDS011;29856;52.144;5.430;2023-04-15T00:23:52;10.63;;;5.40;;
44189;SDS011;29856;52.144;5.430;2023-04-15T00:26:18;10.70;;;5.03;;
44189;SDS011;29856;52.144;5.430;2023-04-15T00:28:44;10.57;;;5.10;;
44189;SDS011;29856;52.144;5.430;2023-04-15T00:31:09;9.98;;;5.18;;
44189;SDS011;29856;52.144;5.430;2023-04-15T00:33:35;8.85;;;4.55;;
44189;SDS011;29856;52.144;5.430;2023-04-15T00:36:00;11.05;;;4.63;;
44189;SDS011;29856;52.144;5.430;2023-04-15T00:38:26;9.82;;;4.60;;
44189;SDS011;29856;52.144;5.430;2023-04-15T00:40:51;8.15;;;5.47;;
44189;SDS011;29856;52.144;5.430;2023-04-15T00:43:17;10.90;;;5.28;;
44189;SDS011;29856;52.144;5.430;2023-04-15T00:45:42;9.88;;;5.10;;
44189;SDS011;29856;52.144;5.430;2023-04-15T00:48:08;9.88;;;5.38;;
44189;SDS011;29856;52.144;5.430;2023-04-15T00:50:33;9.85;;;4.90;;
44189;SDS011;29856;52.144;5.430;2023-04-15T00:52:59;16.13;;;4.93;;
44189;SDS011;29856;52.144;5.430;2023-04-15T00:55:24;10.93;;;5.43;;
44189;SDS011;29856;52.144;5.430;2023-04-15T00:57:50;8.20;;;4.88;;
44189;SDS011;29856;52.144;5.430;2023-04-15T01:00:16;11.02;;;5.30;;
44189;SDS011;29856;52.144;5.430;2023-04-15T01:02:41;11.20;;;5.40;;
44189;SDS011;29856;52.144;5.430;2023-04-15T01:05:07;9.05;;;5.28;;
44189;SDS011;29856;52.144;5.430;2023-04-15T01:07:33;15.55;;;5.68;;
44189;SDS011;29856;52.144;5.430;2023-04-15T01:09:59;9.85;;;5.25;;
44189;SDS011;29856;52.144;5.430;2023-04-15T01:12:25;11.95;;;5.50;;
44189;SDS011;29856;52.144;5.430;2023-04-15T01:14:52;8.82;;;5.50;;
44189;SDS011;29856;52.144;5.430;2023-04-15T01:17:18;8.98;;;5.03;;
44189;SDS011;29856;52.144;5.430;2023-04-15T01:19:43;12.05;;;5.63;;
44189;SDS011;29856;52.144;5.430;2023-04-15T01:22:09;10.63;;;5.20;;
44189;SDS011;29856;52.144;5.430;2023-04-15T01:24:35;10.32;;;5.18;;
44189;SDS011;29856;52.144;5.430;2023-04-15T01:27:01;8.27;;;5.10;;
44189;SDS011;29856;52.144;5.430;2023-04-15T01:29:26;8.25;;;5.30;;
44189;SDS011;29856;52.144;5.430;2023-04-15T01:31:53;7.63;;;5.10;;
44189;SDS011;29856;52.144;5.430;2023-04-15T01:34:19;10.57;;;5.18;;
44189;SDS011;29856;52.144;5.430;2023-04-15T01:36:45;6.70;;;4.82;;
44189;SDS011;29856;52.144;5.430;2023-04-15T01:39:11;7.22;;;4.63;;
44189;SDS011;29856;52.144;5.430;2023-04-15T01:41:36;8.52;;;5.07;;
44189;SDS011;29856;52.144;5.430;2023-04-15T01:44:02;10.48;;;5.43;;
44189;SDS011;29856;52.144;5.430;2023-04-15T01:46:27;8.93;;;5.13;;
44189;SDS011;29856;52.144;5.430;2023-04-15T01:48:53;15.98;;;6.25;;
44189;SDS011;29856;52.144;5.430;2023-04-15T01:51:18;6.35;;;4.85;;
44189;SDS011;29856;52.144;5.430;2023-04-15T01:53:44;11.73;;;5.22;;
44189;SDS011;29856;52.144;5.430;2023-04-15T01:56:09;14.07;;;5.65;;
44189;SDS011;29856;52.144;5.430;2023-04-15T01:58:35;10.00;;;5.25;;
44189;SDS011;29856;52.144;5.430;2023-04-15T02:01:00;9.40;;;5.38;;
44189;SDS011;29856;52.144;5.430;2023-04-15T02:03:27;9.48;;;5.50;;
44189;SDS011;29856;52.144;5.430;2023-04-15T02:05:53;7.68;;;5.43;;
44189;SDS011;29856;52.144;5.430;2023-04-15T02:08:18;13.75;;;5.75;;
44189;SDS011;29856;52.144;5.430;2023-04-15T02:10:43;8.05;;;5.60;;
44189;SDS011;29856;52.144;5.430;2023-04-15T02:13:09;8.90;;;4.90;;
44189;SDS011;29856;52.144;5.430;2023-04-15T02:15:34;10.07;;;5.25;;
44189;SDS011;29856;52.144;5.430;2023-04-15T02:18:00;8.60;;;5.07;;
44189;SDS011;29856;52.144;5.430;2023-04-15T02:20:25;7.03;;;4.45;;
44189;SDS011;29856;52.144;5.430;2023-04-15T02:22:51;11.32;;;5.63;;
44189;SDS011;29856;52.144;5.430;2023-04-15T02:25:16;11.30;;;5.40;;
44189;SDS011;29856;52.144;5.430;2023-04-15T02:27:42;11.15;;;5.38;;
44189;SDS011;29856;52.144;5.430;2023-04-15T02:30:08;9.40;;;5.28;;
44189;SDS011;29856;52.144;5.430;2023-04-15T02:32:33;7.43;;;4.00;;
44189;SDS011;29856;52.144;5.430;2023-04-15T02:35:03;11.50;;;5.35;;
44189;SDS011;29856;52.144;5.430;2023-04-15T02:37:29;8.45;;;4.20;;
44189;SDS011;29856;52.144;5.430;2023-04-15T02:39:54;10.20;;;5.32;;
44189;SDS011;29856;52.144;5.430;2023-04-15T02:42:20;6.63;;;4.68;;
44189;SDS011;29856;52.144;5.430;2023-04-15T02:44:45;7.10;;;4.93;;
44189;SDS011;29856;52.144;5.430;2023-04-15T02:47:11;8.20;;;5.20;;
44189;SDS011;29856;52.144;5.430;2023-04-15T02:49:37;10.05;;;6.00;;
44189;SDS011;29856;52.144;5.430;2023-04-15T02:52:02;11.52;;;5.70;;
44189;SDS011;29856;52.144;5.430;2023-04-15T02:54:28;7.18;;;5.60;;
44189;SDS011;29856;52.144;5.430;2023-04-15T02:56:53;11.60;;;5.97;;
44189;SDS011;29856;52.144;5.430;2023-04-15T02:59:19;9.90;;;5.43;;
44189;SDS011;29856;52.144;5.430;2023-04-15T03:01:45;9.65;;;6.22;;
44189;SDS011;29856;52.144;5.430;2023-04-15T03:04:10;11.88;;;6.53;;
44189;SDS011;29856;52.144;5.430;2023-04-15T03:06:36;9.23;;;6.20;;
44189;SDS011;29856;52.144;5.430;2023-04-15T03:09:01;8.88;;;6.50;;
44189;SDS011;29856;52.144;5.430;2023-04-15T03:11:27;9.45;;;6.07;;
44189;SDS011;29856;52.144;5.430;2023-04-15T03:13:53;12.63;;;6.95;;
44189;SDS011;29856;52.144;5.430;2023-04-15T03:16:18;12.43;;;8.05;;
44189;SDS011;29856;52.144;5.430;2023-04-15T03:18:44;11.25;;;6.43;;
44189;SDS011;29856;52.144;5.430;2023-04-15T03:21:09;18.15;;;5.97;;
44189;SDS011;29856;52.144;5.430;2023-04-15T03:23:35;12.85;;;7.03;;
44189;SDS011;29856;52.144;5.430;2023-04-15T03:26:01;15.00;;;7.75;;
44189;SDS011;29856;52.144;5.430;2023-04-15T03:28:27;14.50;;;7.35;;
44189;SDS011;29856;52.144;5.430;2023-04-15T03:30:52;15.07;;;8.07;;
44189;SDS011;29856;52.144;5.430;2023-04-15T03:33:18;16.88;;;10.10;;
44189;SDS011;29856;52.144;5.430;2023-04-15T03:35:43;16.00;;;7.82;;
44189;SDS011;29856;52.144;5.430;2023-04-15T03:38:09;19.65;;;10.88;;
44189;SDS011;29856;52.144;5.430;2023-04-15T03:40:34;16.73;;;10.10;;
44189;SDS011;29856;52.144;5.430;2023-04-15T03:43:00;15.02;;;9.00;;
44189;SDS011;29856;52.144;5.430;2023-04-15T03:45:25;18.20;;;9.00;;
44189;SDS011;29856;52.144;5.430;2023-04-15T03:47:50;11.88;;;7.47;;
44189;SDS011;29856;52.144;5.430;2023-04-15T03:50:16;12.70;;;7.82;;
44189;SDS011;29856;52.144;5.430;2023-04-15T03:52:41;14.73;;;9.35;;
44189;SDS011;29856;52.144;5.430;2023-04-15T03:55:08;14.25;;;8.73;;
44189;SDS011;29856;52.144;5.430;2023-04-15T03:57:33;11.82;;;7.45;;
44189;SDS011;29856;52.144;5.430;2023-04-15T03:59:59;17.98;;;11.02;;
44189;SDS011;29856;52.144;5.430;2023-04-15T04:02:24;19.45;;;10.10;;
44189;SDS011;29856;52.144;5.430;2023-04-15T04:04:50;13.23;;;8.43;;
44189;SDS011;29856;52.144;5.430;2023-04-15T04:07:15;19.50;;;9.95;;
44189;SDS011;29856;52.144;5.430;2023-04-15T04:09:42;13.50;;;8.93;;
44189;SDS011;29856;52.144;5.430;2023-04-15T04:12:07;15.77;;;8.88;;
44189;SDS011;29856;52.144;5.430;2023-04-15T04:14:33;12.85;;;7.93;;
44189;SDS011;29856;52.144;5.430;2023-04-15T04:16:58;9.18;;;6.95;;
44189;SDS011;29856;52.144;5.430;2023-04-15T04:19:24;18.98;;;8.98;;
44189;SDS011;29856;52.144;5.430;2023-04-15T04:21:49;14.40;;;8.90;;
44189;SDS011;29856;52.144;5.430;2023-04-15T04:24:15;16.73;;;9.15;;
44189;SDS011;29856;52.144;5.430;2023-04-15T04:26:41;15.70;;;8.68;;
44189;SDS011;29856;52.144;5.430;2023-04-15T04:29:06;12.98;;;8.20;;
44189;SDS011;29856;52.144;5.430;2023-04-15T04:31:32;16.85;;;9.68;;
44189;SDS011;29856;52.144;5.430;2023-04-15T04:33:57;13.85;;;9.25;;
44189;SDS011;29856;52.144;5.430;2023-04-15T04:36:23;16.35;;;9.55;;
44189;SDS011;29856;52.144;5.430;2023-04-15T04:38:48;22.20;;;11.45;;
44189;SDS011;29856;52.144;5.430;2023-04-15T04:41:14;16.70;;;9.93;;
44189;SDS011;29856;52.144;5.430;2023-04-15T04:43:39;17.55;;;9.85;;
44189;SDS011;29856;52.144;5.430;2023-04-15T04:46:05;19.30;;;11.32;;
44189;SDS011;29856;52.144;5.430;2023-04-15T04:48:30;18.63;;;11.45;;
44189;SDS011;29856;52.144;5.430;2023-04-15T04:50:55;13.88;;;8.93;;
44189;SDS011;29856;52.144;5.430;2023-04-15T04:53:21;18.95;;;10.10;;
44189;SDS011;29856;52.144;5.430;2023-04-15T04:55:47;14.95;;;10.05;;
44189;SDS011;29856;52.144;5.430;2023-04-15T04:58:12;12.13;;;8.55;;
44189;SDS011;29856;52.144;5.430;2023-04-15T05:00:38;13.20;;;8.57;;
44189;SDS011;29856;52.144;5.430;2023-04-15T05:03:04;14.35;;;9.18;;
44189;SDS011;29856;52.144;5.430;2023-04-15T05:05:30;13.38;;;9.65;;
44189;SDS011;29856;52.144;5.430;2023-04-15T05:07:55;18.75;;;10.10;;
44189;SDS011;29856;52.144;5.430;2023-04-15T05:10:21;15.80;;;9.45;;
44189;SDS011;29856;52.144;5.430;2023-04-15T05:12:46;14.57;;;9.05;;
44189;SDS011;29856;52.144;5.430;2023-04-15T05:15:12;14.07;;;9.57;;
44189;SDS011;29856;52.144;5.430;2023-04-15T05:17:37;17.80;;;10.20;;
44189;SDS011;29856;52.144;5.430;2023-04-15T05:20:03;14.13;;;8.85;;
44189;SDS011;29856;52.144;5.430;2023-04-15T05:22:28;12.68;;;9.40;;
44189;SDS011;29856;52.144;5.430;2023-04-15T05:24:54;15.25;;;9.95;;
44189;SDS011;29856;52.144;5.430;2023-04-15T05:27:19;14.27;;;9.40;;
44189;SDS011;29856;52.144;5.430;2023-04-15T05:29:45;13.27;;;9.02;;
44189;SDS011;29856;52.144;5.430;2023-04-15T05:32:10;11.20;;;8.60;;
44189;SDS011;29856;52.144;5.430;2023-04-15T05:34:36;12.93;;;9.52;;
44189;SDS011;29856;52.144;5.430;2023-04-15T05:37:01;13.02;;;8.77;;
44189;SDS011;29856;52.144;5.430;2023-04-15T05:39:27;12.35;;;9.35;;
44189;SDS011;29856;52.144;5.430;2023-04-15T05:41:52;12.93;;;8.82;;
44189;SDS011;29856;52.144;5.430;2023-04-15T05:44:18;16.35;;;9.50;;
44189;SDS011;29856;52.144;5.430;2023-04-15T05:46:43;16.48;;;9.95;;
44189;SDS011;29856;52.144;5.430;2023-04-15T05:49:09;18.42;;;9.30;;
44189;SDS011;29856;52.144;5.430;2023-04-15T05:51:34;12.00;;;8.70;;
44189;SDS011;29856;52.144;5.430;2023-04-15T05:54:00;13.38;;;9.25;;
44189;SDS011;29856;52.144;5.430;2023-04-15T05:56:25;15.00;;;9.93;;
44189;SDS011;29856;52.144;5.430;2023-04-15T05:58:50;17.15;;;10.63;;
44189;SDS011;29856;52.144;5.430;2023-04-15T06:01:16;15.68;;;10.23;;
44189;SDS011;29856;52.144;5.430;2023-04-15T06:03:42;17.98;;;10.65;;
44189;SDS011;29856;52.144;5.430;2023-04-15T06:06:07;16.88;;;10.55;;
44189;SDS011;29856;52.144;5.430;2023-04-15T06:08:33;14.50;;;9.80;;
44189;SDS011;29856;52.144;5.430;2023-04-15T06:10:59;13.00;;;9.88;;
44189;SDS011;29856;52.144;5.430;2023-04-15T06:13:24;17.98;;;11.35;;
44189;SDS011;29856;52.144;5.430;2023-04-15T06:15:50;20.50;;;12.85;;
44189;SDS011;29856;52.144;5.430;2023-04-15T06:18:15;19.83;;;13.15;;
44189;SDS011;29856;52.144;5.430;2023-04-15T06:20:41;34.33;;;15.02;;
44189;SDS011;29856;52.144;5.430;2023-04-15T06:23:06;28.90;;;15.98;;
44189;SDS011;29856;52.144;5.430;2023-04-15T06:25:32;25.00;;;15.30;;
44189;SDS011;29856;52.144;5.430;2023-04-15T06:27:57;24.83;;;15.52;;
44189;SDS011;29856;52.144;5.430;2023-04-15T06:30:23;24.30;;;13.63;;
44189;SDS011;29856;52.144;5.430;2023-04-15T06:32:48;22.27;;;14.00;;
44189;SDS011;29856;52.144;5.430;2023-04-15T06:35:14;18.35;;;10.52;;
44189;SDS011;29856;52.144;5.430;2023-04-15T06:37:39;12.35;;;9.93;;
44189;SDS011;29856;52.144;5.430;2023-04-15T06:40:05;14.70;;;10.20;;
44189;SDS011;29856;52.144;5.430;2023-04-15T06:42:31;15.23;;;9.93;;
44189;SDS011;29856;52.144;5.430;2023-04-15T06:44:57;11.57;;;9.73;;
44189;SDS011;29856;52.144;5.430;2023-04-15T06:47:22;12.82;;;9.60;;
44189;SDS011;29856;52.144;5.430;2023-04-15T06:49:48;12.55;;;9.40;;
44189;SDS011;29856;52.144;5.430;2023-04-15T06:52:13;11.45;;;8.77;;
44189;SDS011;29856;52.144;5.430;2023-04-15T06:54:39;11.73;;;9.48;;
44189;SDS011;29856;52.144;5.430;2023-04-15T06:57:04;12.00;;;10.38;;
44189;SDS011;29856;52.144;5.430;2023-04-15T06:59:30;11.15;;;9.02;;
44189;SDS011;29856;52.144;5.430;2023-04-15T07:01:55;14.63;;;10.00;;
44189;SDS011;29856;52.144;5.430;2023-04-15T07:04:21;16.70;;;10.32;;
44189;SDS011;29856;52.144;5.430;2023-04-15T07:06:46;12.27;;;9.73;;
44189;SDS011;29856;52.144;5.430;2023-04-15T07:09:12;17.02;;;10.45;;
44189;SDS011;29856;52.144;5.430;2023-04-15T07:11:37;15.88;;;9.95;;
44189;SDS011;29856;52.144;5.430;2023-04-15T07:14:03;15.25;;;10.05;;
44189;SDS011;29856;52.144;5.430;2023-04-15T07:16:28;14.48;;;9.48;;
44189;SDS011;29856;52.144;5.430;2023-04-15T07:18:54;12.43;;;9.07;;
44189;SDS011;29856;52.144;5.430;2023-04-15T07:21:19;13.48;;;9.70;;
44189;SDS011;29856;52.144;5.430;2023-04-15T07:23:44;11.50;;;10.27;;
44189;SDS011;29856;52.144;5.430;2023-04-15T07:26:10;11.70;;;9.70;;
44189;SDS011;29856;52.144;5.430;2023-04-15T07:28:35;12.77;;;10.30;;
44189;SDS011;29856;52.144;5.430;2023-04-15T07:31:01;11.13;;;9.38;;
44189;SDS011;29856;52.144;5.430;2023-04-15T07:33:26;12.88;;;9.18;;
44189;SDS011;29856;52.144;5.430;2023-04-15T07:35:52;12.88;;;9.75;;
44189;SDS011;29856;52.144;5.430;2023-04-15T07:38:17;12.23;;;9.90;;
44189;SDS011;29856;52.144;5.430;2023-04-15T07:40:43;13.20;;;9.60;;
44189;SDS011;29856;52.144;5.430;2023-04-15T07:43:08;12.68;;;8.32;;
44189;SDS011;29856;52.144;5.430;2023-04-15T07:45:34;13.93;;;8.27;;
44189;SDS011;29856;52.144;5.430;2023-04-15T07:48:00;14.00;;;7.90;;
44189;SDS011;29856;52.144;5.430;2023-04-15T07:50:26;10.70;;;8.43;;
44189;SDS011;29856;52.144;5.430;2023-04-15T07:52:52;9.70;;;7.28;;
44189;SDS011;29856;52.144;5.430;2023-04-15T07:55:17;9.65;;;6.70;;
44189;SDS011;29856;52.144;5.430;2023-04-15T07:57:43;8.80;;;6.22;;
44189;SDS011;29856;52.144;5.430;2023-04-15T08:00:09;8.30;;;6.63;;
44189;SDS011;29856;52.144;5.430;2023-04-15T08:02:35;7.57;;;6.32;;
44189;SDS011;29856;52.144;5.430;2023-04-15T08:05:00;7.72;;;6.18;;
44189;SDS011;29856;52.144;5.430;2023-04-15T08:07:26;7.10;;;5.32;;
44189;SDS011;29856;52.144;5.430;2023-04-15T08:09:51;8.82;;;6.22;;
44189;SDS011;29856;52.144;5.430;2023-04-15T08:12:16;7.55;;;6.40;;
44189;SDS011;29856;52.144;5.430;2023-04-15T08:14:42;8.63;;;6.15;;
44189;SDS011;29856;52.144;5.430;2023-04-15T08:17:07;7.03;;;6.18;;
44189;SDS011;29856;52.144;5.430;2023-04-15T08:19:33;7.15;;;5.50;;
44189;SDS011;29856;52.144;5.430;2023-04-15T08:21:58;7.90;;;5.10;;
44189;SDS011;29856;52.144;5.430;2023-04-15T08:24:24;8.18;;;6.00;;
44189;SDS011;29856;52.144;5.430;2023-04-15T08:26:50;8.00;;;5.15;;
44189;SDS011;29856;52.144;5.430;2023-04-15T08:29:15;5.45;;;4.93;;
44189;SDS011;29856;52.144;5.430;2023-04-15T08:31:41;5.10;;;4.38;;
44189;SDS011;29856;52.144;5.430;2023-04-15T08:34:06;8.27;;;4.65;;
44189;SDS011;29856;52.144;5.430;2023-04-15T08:36:32;8.32;;;4.90;;
44189;SDS011;29856;52.144;5.430;2023-04-15T08:38:57;5.60;;;5.05;;
44189;SDS011;29856;52.144;5.430;2023-04-15T08:41:24;6.53;;;4.78;;
44189;SDS011;29856;52.144;5.430;2023-04-15T08:43:57;5.30;;;4.35;;
44189;SDS011;29856;52.144;5.430;2023-04-15T08:46:25;6.05;;;4.05;;
44189;SDS011;29856;52.144;5.430;2023-04-15T08:48:51;5.70;;;4.40;;
44189;SDS011;29856;52.144;5.430;2023-04-15T08:51:21;6.97;;;5.55;;
44189;SDS011;29856;52.144;5.430;2023-04-15T08:53:47;6.38;;;5.30;;
44189;SDS011;29856;52.144;5.430;2023-04-15T08:56:14;7.82;;;6.15;;
44189;SDS011;29856;52.144;5.430;2023-04-15T08:58:40;6.20;;;5.60;;
44189;SDS011;29856;52.144;5.430;2023-04-15T09:01:07;8.95;;;5.22;;
44189;SDS011;29856;52.144;5.430;2023-04-15T09:03:33;6.13;;;4.95;;
44189;SDS011;29856;52.144;5.430;2023-04-15T09:05:59;7.07;;;4.78;;
44189;SDS011;29856;52.144;5.430;2023-04-15T09:08:25;6.35;;;4.63;;
44189;SDS011;29856;52.144;5.430;2023-04-15T09:10:50;6.03;;;4.38;;
44189;SDS011;29856;52.144;5.430;2023-04-15T09:13:15;6.35;;;4.30;;
44189;SDS011;29856;52.144;5.430;2023-04-15T09:15:42;5.57;;;4.05;;
44189;SDS011;29856;52.144;5.430;2023-04-15T09:18:08;8.85;;;5.18;;
44189;SDS011;29856;52.144;5.430;2023-04-15T09:20:39;5.50;;;4.22;;
44189;SDS011;29856;52.144;5.430;2023-04-15T09:23:11;5.70;;;4.28;;
44189;SDS011;29856;52.144;5.430;2023-04-15T09:25:38;5.05;;;3.85;;
44189;SDS011;29856;52.144;5.430;2023-04-15T09:28:04;5.00;;;3.47;;
44189;SDS011;29856;52.144;5.430;2023-04-15T09:30:30;5.40;;;3.95;;
44189;SDS011;29856;52.144;5.430;2023-04-15T09:32:56;7.82;;;4.03;;
44189;SDS011;29856;52.144;5.430;2023-04-15T09:35:23;6.18;;;3.70;;
44189;SDS011;29856;52.144;5.430;2023-04-15T09:37:49;4.78;;;3.63;;
44189;SDS011;29856;52.144;5.430;2023-04-15T09:42:59;4.45;;;3.42;;
44189;SDS011;29856;52.144;5.430;2023-04-15T09:45:25;7.47;;;4.60;;
44189;SDS011;29856;52.144;5.430;2023-04-15T09:47:51;6.15;;;4.65;;
44189;SDS011;29856;52.144;5.430;2023-04-15T09:50:17;6.40;;;4.15;;
44189;SDS011;29856;52.144;5.430;2023-04-15T09:52:44;7.68;;;4.80;;
44189;SDS011;29856;52.144;5.430;2023-04-15T09:55:10;4.88;;;3.17;;
44189;SDS011;29856;52.144;5.430;2023-04-15T09:57:37;3.38;;;2.70;;
44189;SDS011;29856;52.144;5.430;2023-04-15T10:00:04;4.47;;;3.30;;
44189;SDS011;29856;52.144;5.430;2023-04-15T10:02:30;5.25;;;3.20;;
44189;SDS011;29856;52.144;5.430;2023-04-15T10:04:56;4.22;;;3.83;;
44189;SDS011;29856;52.144;5.430;2023-04-15T10:07:22;7.05;;;4.13;;
44189;SDS011;29856;52.144;5.430;2023-04-15T10:09:48;5.30;;;4.03;;
44189;SDS011;29856;52.144;5.430;2023-04-15T10:12:15;5.75;;;3.22;;
44189;SDS011;29856;52.144;5.430;2023-04-15T10:14:41;3.05;;;2.58;;
44189;SDS011;29856;52.144;5.430;2023-04-15T10:17:08;4.57;;;2.85;;
44189;SDS011;29856;52.144;5.430;2023-04-15T10:19:36;4.00;;;3.00;;
44189;SDS011;29856;52.144;5.430;2023-04-15T10:22:02;2.83;;;2.63;;
44189;SDS011;29856;52.144;5.430;2023-04-15T10:24:28;5.28;;;3.80;;
44189;SDS011;29856;52.144;5.430;2023-04-15T10:26:58;3.55;;;3.08;;
44189;SDS011;29856;52.144;5.430;2023-04-15T10:29:24;5.40;;;3.40;;
44189;SDS011;29856;52.144;5.430;2023-04-15T10:31:50;3.42;;;3.13;;
44189;SDS011;29856;52.144;5.430;2023-04-15T10:34:17;4.22;;;3.30;;
44189;SDS011;29856;52.144;5.430;2023-04-15T10:36:43;5.18;;;3.22;;
44189;SDS011;29856;52.144;5.430;2023-04-15T10:42:07;4.15;;;3.30;;
44189;SDS011;29856;52.144;5.430;2023-04-15T10:44:35;4.43;;;3.25;;
44189;SDS011;29856;52.144;5.430;2023-04-15T10:47:03;5.53;;;2.90;;
44189;SDS011;29856;52.144;5.430;2023-04-15T10:49:33;5.22;;;2.70;;
44189;SDS011;29856;52.144;5.430;2023-04-15T10:51:59;5.05;;;3.15;;
44189;SDS011;29856;52.144;5.430;2023-04-15T10:56:52;6.10;;;2.78;;
44189;SDS011;29856;52.144;5.430;2023-04-15T10:59:31;6.53;;;3.00;;
44189;SDS011;29856;52.144;5.430;2023-04-15T11:02:01;4.18;;;2.70;;
44189;SDS011;29856;52.144;5.430;2023-04-15T11:07:38;3.17;;;2.60;;
44189;SDS011;29856;52.144;5.430;2023-04-15T11:12:41;4.35;;;2.83;;
44189;SDS011;29856;52.144;5.430;2023-04-15T11:15:24;7.15;;;2.40;;
44189;SDS011;29856;52.144;5.430;2023-04-15T11:17:51;4.78;;;1.95;;
44189;SDS011;29856;52.144;5.430;2023-04-15T11:20:17;4.68;;;2.20;;
44189;SDS011;29856;52.144;5.430;2023-04-15T11:22:49;2.60;;;2.40;;
44189;SDS011;29856;52.144;5.430;2023-04-15T11:25:25;3.75;;;2.78;;
44189;SDS011;29856;52.144;5.430;2023-04-15T11:27:51;2.70;;;2.00;;
44189;SDS011;29856;52.144;5.430;2023-04-15T11:30:18;3.15;;;2.25;;
44189;SDS011;29856;52.144;5.430;2023-04-15T11:32:49;4.07;;;2.97;;
44189;SDS011;29856;52.144;5.430;2023-04-15T11:35:15;4.40;;;2.58;;
44189;SDS011;29856;52.144;5.430;2023-04-15T11:37:42;3.83;;;2.70;;
44189;SDS011;29856;52.144;5.430;2023-04-15T11:40:08;3.13;;;2.60;;
44189;SDS011;29856;52.144;5.430;2023-04-15T11:42:34;3.13;;;2.20;;
44189;SDS011;29856;52.144;5.430;2023-04-15T11:45:06;2.85;;;2.08;;
44189;SDS011;29856;52.144;5.430;2023-04-15T11:47:39;5.28;;;2.45;;
44189;SDS011;29856;52.144;5.430;2023-04-15T11:50:13;3.50;;;2.40;;
44189;SDS011;29856;52.144;5.430;2023-04-15T11:52:38;4.45;;;2.85;;
44189;SDS011;29856;52.144;5.430;2023-04-15T11:55:04;3.45;;;3.00;;
44189;SDS011;29856;52.144;5.430;2023-04-15T11:57:31;4.28;;;2.97;;
44189;SDS011;29856;52.144;5.430;2023-04-15T11:59:59;4.03;;;2.40;;
44189;SDS011;29856;52.144;5.430;2023-04-15T12:02:30;4.50;;;2.00;;
44189;SDS011;29856;52.144;5.430;2023-04-15T12:05:05;3.42;;;2.40;;
44189;SDS011;29856;52.144;5.430;2023-04-15T12:07:31;5.10;;;2.60;;
44189;SDS011;29856;52.144;5.430;2023-04-15T12:09:56;5.07;;;2.10;;
44189;SDS011;29856;52.144;5.430;2023-04-15T12:12:28;2.38;;;1.60;;
44189;SDS011;29856;52.144;5.430;2023-04-15T12:14:55;5.15;;;1.85;;
44189;SDS011;29856;52.144;5.430;2023-04-15T12:17:21;2.65;;;2.03;;
44189;SDS011;29856;52.144;5.430;2023-04-15T12:19:47;3.42;;;1.40;;
44189;SDS011;29856;52.144;5.430;2023-04-15T12:22:13;6.22;;;1.98;;
44189;SDS011;29856;52.144;5.430;2023-04-15T12:24:41;1.95;;;1.55;;
44189;SDS011;29856;52.144;5.430;2023-04-15T12:27:08;4.57;;;1.98;;
44189;SDS011;29856;52.144;5.430;2023-04-15T12:29:38;3.53;;;1.50;;
44189;SDS011;29856;52.144;5.430;2023-04-15T12:32:05;2.03;;;1.55;;
44189;SDS011;29856;52.144;5.430;2023-04-15T12:34:42;3.38;;;1.60;;
44189;SDS011;29856;52.144;5.430;2023-04-15T12:37:14;2.70;;;1.30;;
44189;SDS011;29856;52.144;5.430;2023-04-15T12:39:41;4.60;;;1.90;;
44189;SDS011;29856;52.144;5.430;2023-04-15T12:42:07;2.65;;;1.80;;
44189;SDS011;29856;52.144;5.430;2023-04-15T12:44:33;3.15;;;1.73;;
44189;SDS011;29856;52.144;5.430;2023-04-15T12:46:59;3.50;;;1.85;;
44189;SDS011;29856;52.144;5.430;2023-04-15T12:49:25;3.42;;;2.10;;
44189;SDS011;29856;52.144;5.430;2023-04-15T12:51:52;3.67;;;2.13;;
44189;SDS011;29856;52.144;5.430;2023-04-15T12:54:19;4.28;;;1.60;;
44189;SDS011;29856;52.144;5.430;2023-04-15T12:56:45;4.90;;;2.03;;
44189;SDS011;29856;52.144;5.430;2023-04-15T12:59:12;2.83;;;1.58;;
44189;SDS011;29856;52.144;5.430;2023-04-15T13:01:38;2.35;;;1.30;;
44189;SDS011;29856;52.144;5.430;2023-04-15T13:04:04;1.58;;;1.48;;
44189;SDS011;29856;52.144;5.430;2023-04-15T13:06:30;4.25;;;1.55;;
44189;SDS011;29856;52.144;5.430;2023-04-15T13:08:55;5.35;;;1.77;;
44189;SDS011;29856;52.144;5.430;2023-04-15T13:11:21;1.55;;;1.45;;
44189;SDS011;29856;52.144;5.430;2023-04-15T13:13:47;2.90;;;1.80;;
44189;SDS011;29856;52.144;5.430;2023-04-15T13:16:12;2.33;;;1.67;;
44189;SDS011;29856;52.144;5.430;2023-04-15T13:18:38;2.75;;;1.67;;
44189;SDS011;29856;52.144;5.430;2023-04-15T13:21:03;4.13;;;1.80;;
44189;SDS011;29856;52.144;5.430;2023-04-15T13:23:29;6.65;;;1.95;;
44189;SDS011;29856;52.144;5.430;2023-04-15T13:25:54;4.68;;;1.60;;
44189;SDS011;29856;52.144;5.430;2023-04-15T13:28:20;4.43;;;1.85;;
44189;SDS011;29856;52.144;5.430;2023-04-15T13:30:45;6.10;;;1.65;;
44189;SDS011;29856;52.144;5.430;2023-04-15T13:33:10;5.95;;;1.88;;
44189;SDS011;29856;52.144;5.430;2023-04-15T13:35:36;2.65;;;1.65;;
44189;SDS011;29856;52.144;5.430;2023-04-15T13:38:01;4.68;;;1.80;;
44189;SDS011;29856;52.144;5.430;2023-04-15T13:40:27;5.93;;;2.47;;
44189;SDS011;29856;52.144;5.430;2023-04-15T13:42:52;3.08;;;1.65;;
44189;SDS011;29856;52.144;5.430;2023-04-15T13:45:18;5.32;;;1.33;;
44189;SDS011;29856;52.144;5.430;2023-04-15T13:47:43;4.13;;;1.40;;
44189;SDS011;29856;52.144;5.430;2023-04-15T13:50:09;4.95;;;1.50;;
44189;SDS011;29856;52.144;5.430;2023-04-15T13:52:34;2.50;;;1.15;;
44189;SDS011;29856;52.144;5.430;2023-04-15T13:55:03;4.20;;;2.05;;
44189;SDS011;29856;52.144;5.430;2023-04-15T13:57:30;6.32;;;3.63;;
44189;SDS011;29856;52.144;5.430;2023-04-15T13:59:56;4.28;;;1.40;;
44189;SDS011;29856;52.144;5.430;2023-04-15T14:02:22;3.10;;;1.40;;
44189;SDS011;29856;52.144;5.430;2023-04-15T14:04:47;1.05;;;0.90;;
44189;SDS011;29856;52.144;5.430;2023-04-15T14:07:13;2.78;;;1.20;;
44189;SDS011;29856;52.144;5.430;2023-04-15T14:09:38;2.40;;;1.25;;
44189;SDS011;29856;52.144;5.430;2023-04-15T14:12:04;2.63;;;1.25;;
44189;SDS011;29856;52.144;5.430;2023-04-15T14:14:29;3.45;;;1.25;;
44189;SDS011;29856;52.144;5.430;2023-04-15T14:16:55;1.67;;;1.27;;
44189;SDS011;29856;52.144;5.430;2023-04-15T14:19:21;7.28;;;1.55;;
44189;SDS011;29856;52.144;5.430;2023-04-15T14:21:48;2.15;;;1.27;;
44189;SDS011;29856;52.144;5.430;2023-04-15T14:24:13;5.55;;;1.50;;
44189;SDS011;29856;52.144;5.430;2023-04-15T14:26:38;3.10;;;1.40;;
44189;SDS011;29856;52.144;5.430;2023-04-15T14:29:04;5.00;;;1.42;;
44189;SDS011;29856;52.144;5.430;2023-04-15T14:31:29;6.57;;;2.70;;
44189;SDS011;29856;52.144;5.430;2023-04-15T14:33:55;7.35;;;1.67;;
44189;SDS011;29856;52.144;5.430;2023-04-15T14:36:20;3.13;;;1.60;;
44189;SDS011;29856;52.144;5.430;2023-04-15T14:38:46;5.47;;;2.70;;
44189;SDS011;29856;52.144;5.430;2023-04-15T14:41:11;5.28;;;1.58;;
44189;SDS011;29856;52.144;5.430;2023-04-15T14:43:37;7.78;;;2.22;;
44189;SDS011;29856;52.144;5.430;2023-04-15T14:46:02;7.55;;;3.28;;
44189;SDS011;29856;52.144;5.430;2023-04-15T14:48:28;7.20;;;3.17;;